sensor_id;sensor_type;location;lat;lon;timestamp;pressure;altitude;pressure_sealevel;temperature;humidity
36284;BME280;56085;48.910;9.478;2023-07-31T00:01:18;98177.75;;;25.20;33.07
36284;BME280;56085;48.910;9.478;2023-07-31T00:03:43;98168.97;;;24.96;33.15
36284;BME280;56085;48.910;9.478;2023-07-31T00:06:08;98183.84;;;24.65;33.18
36284;BME280;56085;48.910;9.478;2023-07-31T00:08:34;98176.59;;;24.86;33.23
36284;BME280;56085;48.910;9.478;2023-07-31T00:10:59;98171.25;;;25.11;33.11
36284;BME280;56085;48.910;9.478;2023-07-31T00:13:24;98179.03;;;24.97;33.38
36284;BME280;56085;48.910;9.478;2023-07-31T00:15:49;98174.31;;;24.94;33.41
36284;BME280;56085;48.910;9.478;2023-07-31T00:18:15;98167.28;;;24.77;33.37
36284;BME280;56085;48.910;9.478;2023-07-31T00:20:40;98161.81;;;24.82;33.35
36284;BME280;56085;48.910;9.478;2023-07-31T00:23:06;98175.06;;;24.50;33.41
36284;BME280;56085;48.910;9.478;2023-07-31T00:25:31;98165.81;;;24.72;33.25
36284;BME280;56085;48.910;9.478;2023-07-31T00:27:56;98154.50;;;24.94;33.35
36284;BME280;56085;48.910;9.478;2023-07-31T00:30:21;98163.06;;;24.81;33.35
36284;BME280;56085;48.910;9.478;2023-07-31T00:32:47;98156.97;;;24.61;33.59
36284;BME280;56085;48.910;9.478;2023-07-31T00:35:12;98168.00;;;24.68;33.58
36284;BME280;56085;48.910;9.478;2023-07-31T00:37:38;98153.56;;;24.53;33.52
36284;BME280;56085;48.910;9.478;2023-07-31T00:40:03;98169.19;;;24.80;33.63
36284;BME280;56085;48.910;9.478;2023-07-31T00:42:29;98178.69;;;24.51;33.55
36284;BME280;56085;48.910;9.478;2023-07-31T00:44:54;98165.97;;;24.68;33.54
36284;BME280;56085;48.910;9.478;2023-07-31T00:47:19;98172.72;;;24.93;33.64
36284;BME280;56085;48.910;9.478;2023-07-31T00:49:45;98187.66;;;24.71;33.76
36284;BME280;56085;48.910;9.478;2023-07-31T00:52:11;98195.00;;;24.91;33.65
36284;BME280;56085;48.910;9.478;2023-07-31T00:54:36;98186.66;;;24.87;33.28
36284;BME280;56085;48.910;9.478;2023-07-31T00:57:02;98187.66;;;24.71;33.71
36284;BME280;56085;48.910;9.478;2023-07-31T00:59:27;98168.59;;;24.85;33.61
36284;BME280;56085;48.910;9.478;2023-07-31T01:01:53;98166.88;;;24.87;33.68
36284;BME280;56085;48.910;9.478;2023-07-31T01:04:18;98175.09;;;24.95;33.58
36284;BME280;56085;48.910;9.478;2023-07-31T01:07:00;98228.81;;;24.95;33.82
36284;BME280;56085;48.910;9.478;2023-07-31T01:09:43;98167.28;;;24.77;34.04
36284;BME280;56085;48.910;9.478;2023-07-31T01:12:13;98224.41;;;24.71;33.91
36284;BME280;56085;48.910;9.478;2023-07-31T01:14:39;98168.16;;;24.51;34.01
36284;BME280;56085;48.910;9.478;2023-07-31T01:17:04;98174.00;;;24.35;34.52
36284;BME280;56085;48.910;9.478;2023-07-31T01:19:30;98167.41;;;24.16;34.30
36284;BME280;56085;48.910;9.478;2023-07-31T01:24:59;98217.31;;;24.54;34.20
36284;BME280;56085;48.910;9.478;2023-07-31T01:27:34;98200.63;;;24.47;34.66
36284;BME280;56085;48.910;9.478;2023-07-31T01:30:08;98209.16;;;24.56;34.55
36284;BME280;56085;48.910;9.478;2023-07-31T01:32:40;98182.94;;;24.33;34.41
36284;BME280;56085;48.910;9.478;2023-07-31T01:35:07;98139.69;;;24.23;34.94
36284;BME280;56085;48.910;9.478;2023-07-31T01:37:33;98133.72;;;24.21;34.78
36284;BME280;56085;48.910;9.478;2023-07-31T01:39:58;98134.69;;;24.28;34.73
36284;BME280;56085;48.910;9.478;2023-07-31T01:42:23;98128.53;;;24.20;35.03
36284;BME280;56085;48.910;9.478;2023-07-31T01:44:49;98121.25;;;24.32;35.43
36284;BME280;56085;48.910;9.478;2023-07-31T01:47:14;98122.47;;;24.31;34.95
36284;BME280;56085;48.910;9.478;2023-07-31T01:49:39;98118.88;;;24.30;34.81
36284;BME280;56085;48.910;9.478;2023-07-31T01:52:05;98137.91;;;24.17;35.17
36284;BME280;56085;48.910;9.478;2023-07-31T01:54:30;98118.06;;;24.08;35.20
36284;BME280;56085;48.910;9.478;2023-07-31T01:56:56;98131.25;;;24.11;34.87
36284;BME280;56085;48.910;9.478;2023-07-31T01:59:21;98141.94;;;23.81;35.27
36284;BME280;56085;48.910;9.478;2023-07-31T02:01:46;98139.72;;;23.63;34.94
36284;BME280;56085;48.910;9.478;2023-07-31T02:04:11;98132.16;;;23.60;35.17
36284;BME280;56085;48.910;9.478;2023-07-31T02:06:37;98144.09;;;23.64;34.93
36284;BME280;56085;48.910;9.478;2023-07-31T02:09:03;98122.09;;;23.72;35.21
36284;BME280;56085;48.910;9.478;2023-07-31T02:11:28;98128.97;;;23.70;35.30
36284;BME280;56085;48.910;9.478;2023-07-31T02:13:53;98101.97;;;23.82;35.38
36284;BME280;56085;48.910;9.478;2023-07-31T02:16:19;98130.69;;;23.55;35.37
36284;BME280;56085;48.910;9.478;2023-07-31T02:18:44;98112.88;;;23.45;35.59
36284;BME280;56085;48.910;9.478;2023-07-31T02:21:09;98122.81;;;23.50;35.17
36284;BME280;56085;48.910;9.478;2023-07-31T02:23:34;98120.91;;;23.47;35.70
36284;BME280;56085;48.910;9.478;2023-07-31T02:26:00;98102.84;;;23.44;35.41
36284;BME280;56085;48.910;9.478;2023-07-31T02:28:25;98100.78;;;23.58;35.20
36284;BME280;56085;48.910;9.478;2023-07-31T02:30:50;98108.34;;;23.48;35.38
36284;BME280;56085;48.910;9.478;2023-07-31T02:33:16;98101.53;;;23.71;35.42
36284;BME280;56085;48.910;9.478;2023-07-31T02:35:42;98097.78;;;23.87;35.77
36284;BME280;56085;48.910;9.478;2023-07-31T02:38:07;98108.00;;;23.59;35.51
36284;BME280;56085;48.910;9.478;2023-07-31T02:40:32;98111.91;;;23.87;35.58
36284;BME280;56085;48.910;9.478;2023-07-31T02:42:57;98112.84;;;23.58;35.38
36284;BME280;56085;48.910;9.478;2023-07-31T02:45:23;98081.25;;;23.63;35.50
36284;BME280;56085;48.910;9.478;2023-07-31T02:47:48;98091.97;;;23.68;35.72
36284;BME280;56085;48.910;9.478;2023-07-31T02:50:13;98094.41;;;23.79;35.34
36284;BME280;56085;48.910;9.478;2023-07-31T02:52:38;98100.09;;;23.53;35.83
36284;BME280;56085;48.910;9.478;2023-07-31T02:55:04;98080.41;;;23.76;35.86
36284;BME280;56085;48.910;9.478;2023-07-31T02:57:29;98089.38;;;23.61;35.57
36284;BME280;56085;48.910;9.478;2023-07-31T02:59:54;98081.53;;;23.91;35.81
36284;BME280;56085;48.910;9.478;2023-07-31T03:02:20;98071.09;;;23.66;35.78
36284;BME280;56085;48.910;9.478;2023-07-31T03:04:45;98070.00;;;23.85;35.93
36284;BME280;56085;48.910;9.478;2023-07-31T03:07:10;98072.50;;;23.96;35.62
36284;BME280;56085;48.910;9.478;2023-07-31T03:09:36;98062.53;;;23.92;35.62
36284;BME280;56085;48.910;9.478;2023-07-31T03:12:01;98076.97;;;24.07;35.76
36284;BME280;56085;48.910;9.478;2023-07-31T03:14:26;98073.50;;;23.90;35.64
36284;BME280;56085;48.910;9.478;2023-07-31T03:16:52;98083.38;;;23.72;35.52
36284;BME280;56085;48.910;9.478;2023-07-31T03:19:17;98080.03;;;23.99;35.58
36284;BME280;56085;48.910;9.478;2023-07-31T03:21:42;98066.81;;;23.61;35.84
36284;BME280;56085;48.910;9.478;2023-07-31T03:24:08;98087.31;;;23.75;35.69
36284;BME280;56085;48.910;9.478;2023-07-31T03:26:33;98076.56;;;23.82;35.54
36284;BME280;56085;48.910;9.478;2023-07-31T03:28:58;98094.63;;;23.98;35.57
36284;BME280;56085;48.910;9.478;2023-07-31T03:31:24;98080.56;;;24.07;35.77
36284;BME280;56085;48.910;9.478;2023-07-31T03:33:49;98074.50;;;23.83;35.52
36284;BME280;56085;48.910;9.478;2023-07-31T03:36:14;98093.97;;;23.68;35.71
36284;BME280;56085;48.910;9.478;2023-07-31T03:38:39;98066.75;;;23.87;35.85
36284;BME280;56085;48.910;9.478;2023-07-31T03:41:05;98065.69;;;23.59;35.87
36284;BME280;56085;48.910;9.478;2023-07-31T03:43:31;98092.75;;;23.69;35.80
36284;BME280;56085;48.910;9.478;2023-07-31T03:45:58;98087.78;;;23.73;35.58
36284;BME280;56085;48.910;9.478;2023-07-31T03:48:24;98095.13;;;24.05;35.61
36284;BME280;56085;48.910;9.478;2023-07-31T03:50:49;98084.66;;;23.93;35.74
36284;BME280;56085;48.910;9.478;2023-07-31T03:53:14;98069.78;;;23.80;35.67
36284;BME280;56085;48.910;9.478;2023-07-31T03:55:40;98066.50;;;23.81;35.59
36284;BME280;56085;48.910;9.478;2023-07-31T03:58:05;98073.94;;;23.53;35.77
36284;BME280;56085;48.910;9.478;2023-07-31T04:00:30;98084.25;;;23.82;35.75
36284;BME280;56085;48.910;9.478;2023-07-31T04:02:56;98063.81;;;23.91;35.42
36284;BME280;56085;48.910;9.478;2023-07-31T04:05:21;98064.00;;;23.96;35.80
36284;BME280;56085;48.910;9.478;2023-07-31T04:07:46;98087.06;;;23.95;35.86
36284;BME280;56085;48.910;9.478;2023-07-31T04:10:11;98077.56;;;23.88;35.58
36284;BME280;56085;48.910;9.478;2023-07-31T04:12:37;98077.94;;;24.13;35.73
36284;BME280;56085;48.910;9.478;2023-07-31T04:15:02;98093.31;;;24.12;35.84
36284;BME280;56085;48.910;9.478;2023-07-31T04:17:27;98094.63;;;24.20;35.81
36284;BME280;56085;48.910;9.478;2023-07-31T04:19:53;98090.41;;;24.02;35.81
36284;BME280;56085;48.910;9.478;2023-07-31T04:22:18;98080.38;;;24.23;35.82
36284;BME280;56085;48.910;9.478;2023-07-31T04:24:43;98085.75;;;24.09;35.69
36284;BME280;56085;48.910;9.478;2023-07-31T04:27:08;98081.69;;;24.10;35.50
36284;BME280;56085;48.910;9.478;2023-07-31T04:29:34;98071.56;;;24.44;35.68
36284;BME280;56085;48.910;9.478;2023-07-31T04:31:59;98074.84;;;24.42;35.68
36284;BME280;56085;48.910;9.478;2023-07-31T04:34:24;98065.50;;;24.54;35.40
36284;BME280;56085;48.910;9.478;2023-07-31T04:36:49;98045.09;;;24.28;35.35
36284;BME280;56085;48.910;9.478;2023-07-31T04:39:15;98052.75;;;24.50;35.49
36284;BME280;56085;48.910;9.478;2023-07-31T04:41:40;98078.97;;;24.28;35.60
36284;BME280;56085;48.910;9.478;2023-07-31T04:44:05;98057.16;;;24.73;35.64
36284;BME280;56085;48.910;9.478;2023-07-31T04:46:31;98054.84;;;24.58;35.38
36284;BME280;56085;48.910;9.478;2023-07-31T04:48:56;98070.53;;;24.50;35.31
36284;BME280;56085;48.910;9.478;2023-07-31T04:51:21;98067.63;;;24.63;35.36
36284;BME280;56085;48.910;9.478;2023-07-31T04:53:48;98081.63;;;24.45;35.53
36284;BME280;56085;48.910;9.478;2023-07-31T04:56:13;98076.44;;;24.65;35.30
36284;BME280;56085;48.910;9.478;2023-07-31T04:58:40;98069.97;;;24.65;35.46
36284;BME280;56085;48.910;9.478;2023-07-31T05:01:05;98049.69;;;24.88;35.28
36284;BME280;56085;48.910;9.478;2023-07-31T05:03:31;98060.22;;;24.88;35.21
36284;BME280;56085;48.910;9.478;2023-07-31T05:05:56;98059.34;;;24.69;35.40
36284;BME280;56085;48.910;9.478;2023-07-31T05:08:21;98075.38;;;24.50;35.29
36284;BME280;56085;48.910;9.478;2023-07-31T05:10:47;98065.88;;;24.34;35.16
36284;BME280;56085;48.910;9.478;2023-07-31T05:13:12;98057.25;;;24.38;35.31
36284;BME280;56085;48.910;9.478;2023-07-31T05:15:37;98059.72;;;24.58;35.45
36284;BME280;56085;48.910;9.478;2023-07-31T05:18:03;98045.75;;;24.86;35.29
36284;BME280;56085;48.910;9.478;2023-07-31T05:20:28;98074.81;;;24.86;35.30
36284;BME280;56085;48.910;9.478;2023-07-31T05:22:53;98045.56;;;25.12;35.28
36284;BME280;56085;48.910;9.478;2023-07-31T05:25:19;98045.19;;;25.41;35.13
36284;BME280;56085;48.910;9.478;2023-07-31T05:27:44;98056.25;;;25.17;35.40
36284;BME280;56085;48.910;9.478;2023-07-31T05:30:10;98053.91;;;25.24;35.29
36284;BME280;56085;48.910;9.478;2023-07-31T05:32:35;98054.06;;;25.21;35.39
36284;BME280;56085;48.910;9.478;2023-07-31T05:35:00;98044.91;;;25.07;35.18
36284;BME280;56085;48.910;9.478;2023-07-31T05:37:26;98040.94;;;24.96;35.18
36284;BME280;56085;48.910;9.478;2023-07-31T05:39:51;98051.69;;;24.79;35.17
36284;BME280;56085;48.910;9.478;2023-07-31T05:42:17;98058.47;;;24.81;35.34
36284;BME280;56085;48.910;9.478;2023-07-31T05:44:43;98058.78;;;25.24;35.00
36284;BME280;56085;48.910;9.478;2023-07-31T05:47:09;98073.47;;;25.00;34.93
36284;BME280;56085;48.910;9.478;2023-07-31T05:49:34;98053.84;;;25.56;35.19
36284;BME280;56085;48.910;9.478;2023-07-31T05:51:59;98038.88;;;25.46;35.21
36284;BME280;56085;48.910;9.478;2023-07-31T05:54:24;98043.91;;;25.42;35.15
36284;BME280;56085;48.910;9.478;2023-07-31T05:56:50;98035.59;;;25.48;35.02
36284;BME280;56085;48.910;9.478;2023-07-31T05:59:15;98087.09;;;24.92;35.18
36284;BME280;56085;48.910;9.478;2023-07-31T06:01:41;98053.75;;;25.28;34.98
36284;BME280;56085;48.910;9.478;2023-07-31T06:04:06;98062.66;;;25.49;35.05
36284;BME280;56085;48.910;9.478;2023-07-31T06:06:31;98067.00;;;25.40;34.79
36284;BME280;56085;48.910;9.478;2023-07-31T06:08:57;98038.63;;;25.81;34.89
36284;BME280;56085;48.910;9.478;2023-07-31T06:11:22;98066.31;;;25.27;34.82
36284;BME280;56085;48.910;9.478;2023-07-31T06:13:47;98042.06;;;25.57;34.88
36284;BME280;56085;48.910;9.478;2023-07-31T06:16:14;98035.47;;;25.79;34.69
36284;BME280;56085;48.910;9.478;2023-07-31T06:18:40;98057.31;;;25.69;34.79
36284;BME280;56085;48.910;9.478;2023-07-31T06:21:06;98044.25;;;25.44;34.84
36284;BME280;56085;48.910;9.478;2023-07-31T06:23:31;98044.44;;;25.87;34.86
36284;BME280;56085;48.910;9.478;2023-07-31T06:25:56;98035.94;;;25.68;34.84
36284;BME280;56085;48.910;9.478;2023-07-31T06:28:27;98093.84;;;25.95;34.81
36284;BME280;56085;48.910;9.478;2023-07-31T06:30:54;98038.81;;;26.05;34.38
36284;BME280;56085;48.910;9.478;2023-07-31T06:33:19;98056.75;;;26.11;34.72
36284;BME280;56085;48.910;9.478;2023-07-31T06:35:44;98053.41;;;25.85;34.54
36284;BME280;56085;48.910;9.478;2023-07-31T06:38:10;98071.53;;;26.16;34.39
36284;BME280;56085;48.910;9.478;2023-07-31T06:40:36;98064.09;;;26.37;34.41
36284;BME280;56085;48.910;9.478;2023-07-31T06:43:01;98054.50;;;26.34;34.39
36284;BME280;56085;48.910;9.478;2023-07-31T06:45:33;98074.59;;;26.82;34.42
36284;BME280;56085;48.910;9.478;2023-07-31T06:47:58;98069.25;;;26.75;34.41
36284;BME280;56085;48.910;9.478;2023-07-31T06:50:26;98061.13;;;26.31;34.35
36284;BME280;56085;48.910;9.478;2023-07-31T06:52:52;98048.28;;;26.82;34.32
36284;BME280;56085;48.910;9.478;2023-07-31T06:55:21;98113.59;;;26.97;34.21
36284;BME280;56085;48.910;9.478;2023-07-31T06:57:51;98067.63;;;26.93;33.91
36284;BME280;56085;48.910;9.478;2023-07-31T07:00:17;98069.63;;;27.02;33.90
36284;BME280;56085;48.910;9.478;2023-07-31T07:02:43;98059.66;;;27.73;33.90
36284;BME280;56085;48.910;9.478;2023-07-31T07:05:08;98033.41;;;27.30;33.75
36284;BME280;56085;48.910;9.478;2023-07-31T07:07:34;98054.22;;;27.27;33.52
36284;BME280;56085;48.910;9.478;2023-07-31T07:09:59;98057.72;;;27.22;33.67
36284;BME280;56085;48.910;9.478;2023-07-31T07:12:25;98083.06;;;27.34;33.94
36284;BME280;56085;48.910;9.478;2023-07-31T07:14:50;98051.75;;;27.20;33.87
36284;BME280;56085;48.910;9.478;2023-07-31T07:17:18;98053.81;;;27.19;33.47
36284;BME280;56085;48.910;9.478;2023-07-31T07:19:43;98053.38;;;27.69;33.38
36284;BME280;56085;48.910;9.478;2023-07-31T07:22:10;98088.34;;;27.75;33.33
36284;BME280;56085;48.910;9.478;2023-07-31T07:24:35;98053.44;;;28.23;33.20
36284;BME280;56085;48.910;9.478;2023-07-31T07:27:00;98048.78;;;28.11;33.31
36284;BME280;56085;48.910;9.478;2023-07-31T07:29:26;98048.66;;;27.66;33.07
36284;BME280;56085;48.910;9.478;2023-07-31T07:31:51;98034.41;;;28.14;33.11
36284;BME280;56085;48.910;9.478;2023-07-31T07:34:16;98037.66;;;28.52;33.17
36284;BME280;56085;48.910;9.478;2023-07-31T07:36:42;98045.81;;;28.89;33.01
36284;BME280;56085;48.910;9.478;2023-07-31T07:39:09;98053.22;;;29.01;33.08
36284;BME280;56085;48.910;9.478;2023-07-31T07:41:34;98025.56;;;29.02;33.05
36284;BME280;56085;48.910;9.478;2023-07-31T07:44:00;98053.81;;;28.16;32.96
36284;BME280;56085;48.910;9.478;2023-07-31T07:46:25;98064.47;;;28.06;32.96
36284;BME280;56085;48.910;9.478;2023-07-31T07:48:50;98030.97;;;28.10;32.99
36284;BME280;56085;48.910;9.478;2023-07-31T07:51:15;98042.94;;;28.29;32.33
36284;BME280;56085;48.910;9.478;2023-07-31T07:53:41;98045.22;;;28.70;32.61
36284;BME280;56085;48.910;9.478;2023-07-31T07:56:06;98025.56;;;29.02;32.61
36284;BME280;56085;48.910;9.478;2023-07-31T07:58:31;98017.31;;;29.04;32.48
36284;BME280;56085;48.910;9.478;2023-07-31T08:00:56;98023.34;;;28.76;32.13
36284;BME280;56085;48.910;9.478;2023-07-31T08:03:22;98032.56;;;28.86;32.05
36284;BME280;56085;48.910;9.478;2023-07-31T08:05:47;98007.78;;;29.22;31.75
36284;BME280;56085;48.910;9.478;2023-07-31T08:08:14;98068.38;;;28.63;31.66
36284;BME280;56085;48.910;9.478;2023-07-31T08:10:41;98038.25;;;28.86;31.89
36284;BME280;56085;48.910;9.478;2023-07-31T08:13:06;98026.50;;;28.63;32.16
36284;BME280;56085;48.910;9.478;2023-07-31T08:15:32;98034.31;;;28.83;32.01
36284;BME280;56085;48.910;9.478;2023-07-31T08:17:57;98038.16;;;28.80;31.55
36284;BME280;56085;48.910;9.478;2023-07-31T08:20:22;98006.91;;;29.01;31.43
36284;BME280;56085;48.910;9.478;2023-07-31T08:22:47;98015.59;;;29.27;31.80
36284;BME280;56085;48.910;9.478;2023-07-31T08:25:13;98016.03;;;29.05;31.46
36284;BME280;56085;48.910;9.478;2023-07-31T08:27:38;98018.66;;;28.73;31.39
36284;BME280;56085;48.910;9.478;2023-07-31T08:30:03;98012.56;;;29.31;31.43
36284;BME280;56085;48.910;9.478;2023-07-31T08:32:29;97997.16;;;29.22;31.02
36284;BME280;56085;48.910;9.478;2023-07-31T08:34:54;97991.41;;;29.37;31.08
36284;BME280;56085;48.910;9.478;2023-07-31T08:37:20;98008.41;;;29.32;31.08
36284;BME280;56085;48.910;9.478;2023-07-31T08:39:45;97971.56;;;29.43;30.94
36284;BME280;56085;48.910;9.478;2023-07-31T08:42:10;97984.94;;;29.01;30.89
36284;BME280;56085;48.910;9.478;2023-07-31T08:44:37;97980.53;;;29.36;31.10
36284;BME280;56085;48.910;9.478;2023-07-31T08:47:03;98006.41;;;29.02;30.73
36284;BME280;56085;48.910;9.478;2023-07-31T08:49:30;98029.19;;;29.02;30.60
36284;BME280;56085;48.910;9.478;2023-07-31T08:51:55;97990.59;;;28.66;30.79
36284;BME280;56085;48.910;9.478;2023-07-31T08:54:23;98002.13;;;28.92;30.33
36284;BME280;56085;48.910;9.478;2023-07-31T08:56:49;98017.69;;;28.61;30.71
36284;BME280;56085;48.910;9.478;2023-07-31T08:59:15;97998.75;;;29.44;30.61
36284;BME280;56085;48.910;9.478;2023-07-31T09:01:44;98019.63;;;29.56;30.18
36284;BME280;56085;48.910;9.478;2023-07-31T09:04:14;98005.81;;;29.69;30.35
36284;BME280;56085;48.910;9.478;2023-07-31T09:06:42;98015.00;;;29.79;30.27
36284;BME280;56085;48.910;9.478;2023-07-31T09:09:08;97989.94;;;30.09;30.10
36284;BME280;56085;48.910;9.478;2023-07-31T09:11:34;97971.03;;;30.38;29.94
36284;BME280;56085;48.910;9.478;2023-07-31T09:14:00;97984.69;;;30.55;29.77
36284;BME280;56085;48.910;9.478;2023-07-31T09:16:33;97957.22;;;31.38;29.74
36284;BME280;56085;48.910;9.478;2023-07-31T09:18:58;97944.53;;;30.96;29.74
36284;BME280;56085;48.910;9.478;2023-07-31T09:21:26;97987.00;;;30.83;29.44
36284;BME280;56085;48.910;9.478;2023-07-31T09:23:53;97973.63;;;30.36;29.70
36284;BME280;56085;48.910;9.478;2023-07-31T09:26:32;97979.88;;;30.72;29.26
36284;BME280;56085;48.910;9.478;2023-07-31T09:28:59;98001.81;;;30.02;29.57
36284;BME280;56085;48.910;9.478;2023-07-31T09:31:32;98004.94;;;30.31;29.49
36284;BME280;56085;48.910;9.478;2023-07-31T09:33:58;97955.84;;;30.21;29.77
36284;BME280;56085;48.910;9.478;2023-07-31T09:36:23;97953.75;;;30.42;29.29
36284;BME280;56085;48.910;9.478;2023-07-31T09:38:48;97969.16;;;30.29;29.38
36284;BME280;56085;48.910;9.478;2023-07-31T09:41:13;98002.59;;;29.62;29.08
36284;BME280;56085;48.910;9.478;2023-07-31T09:43:39;97953.59;;;29.78;29.33
36284;BME280;56085;48.910;9.478;2023-07-31T09:46:13;98028.38;;;30.14;29.07
36284;BME280;56085;48.910;9.478;2023-07-31T09:48:38;97945.97;;;30.42;29.18
36284;BME280;56085;48.910;9.478;2023-07-31T09:51:04;97971.81;;;30.65;29.25
36284;BME280;56085;48.910;9.478;2023-07-31T09:53:30;97937.84;;;30.35;28.82
36284;BME280;56085;48.910;9.478;2023-07-31T09:55:58;97984.31;;;30.41;29.06
36284;BME280;56085;48.910;9.478;2023-07-31T09:58:23;97944.53;;;30.58;28.76
36284;BME280;56085;48.910;9.478;2023-07-31T10:00:50;97930.56;;;30.02;28.87
36284;BME280;56085;48.910;9.478;2023-07-31T10:03:16;97954.31;;;30.25;28.68
36284;BME280;56085;48.910;9.478;2023-07-31T10:05:45;97926.31;;;30.50;29.03
36284;BME280;56085;48.910;9.478;2023-07-31T10:08:15;97925.03;;;30.51;28.53
36284;BME280;56085;48.910;9.478;2023-07-31T10:10:42;97944.50;;;30.26;28.71
36284;BME280;56085;48.910;9.478;2023-07-31T10:13:08;97914.38;;;30.52;28.53
36284;BME280;56085;48.910;9.478;2023-07-31T10:15:34;97931.91;;;30.39;28.44
36284;BME280;56085;48.910;9.478;2023-07-31T10:17:59;97933.16;;;30.64;28.45
36284;BME280;56085;48.910;9.478;2023-07-31T10:20:26;97897.91;;;31.16;28.46
36284;BME280;56085;48.910;9.478;2023-07-31T10:22:54;97957.69;;;31.25;27.95
36284;BME280;56085;48.910;9.478;2023-07-31T10:25:21;97945.84;;;31.55;28.08
36284;BME280;56085;48.910;9.478;2023-07-31T10:27:47;97903.50;;;30.93;28.26
36284;BME280;56085;48.910;9.478;2023-07-31T10:30:15;97960.63;;;30.61;28.08
36284;BME280;56085;48.910;9.478;2023-07-31T10:32:43;97946.53;;;30.20;28.20
36284;BME280;56085;48.910;9.478;2023-07-31T10:35:09;97931.16;;;30.12;28.28
36284;BME280;56085;48.910;9.478;2023-07-31T10:37:40;97976.97;;;29.82;28.15
36284;BME280;56085;48.910;9.478;2023-07-31T10:40:09;97902.22;;;30.94;28.15
36284;BME280;56085;48.910;9.478;2023-07-31T10:42:37;97932.09;;;30.03;28.09
36284;BME280;56085;48.910;9.478;2023-07-31T10:45:08;97946.50;;;30.46;27.99
36284;BME280;56085;48.910;9.478;2023-07-31T10:47:38;97939.94;;;30.67;28.06
36284;BME280;56085;48.910;9.478;2023-07-31T10:50:19;97951.19;;;31.19;27.70
36284;BME280;56085;48.910;9.478;2023-07-31T10:52:52;97920.13;;;31.49;27.99
36284;BME280;56085;48.910;9.478;2023-07-31T10:55:25;97967.03;;;31.86;27.84
36284;BME280;56085;48.910;9.478;2023-07-31T10:57:51;97856.56;;;31.60;28.00
36284;BME280;56085;48.910;9.478;2023-07-31T11:03:03;97947.06;;;30.88;27.51
36284;BME280;56085;48.910;9.478;2023-07-31T11:08:21;97938.53;;;31.37;27.46
36284;BME280;56085;48.910;9.478;2023-07-31T11:10:49;97897.50;;;31.35;27.85
36284;BME280;56085;48.910;9.478;2023-07-31T11:13:15;97891.69;;;31.12;27.53
36284;BME280;56085;48.910;9.478;2023-07-31T11:15:40;97859.03;;;31.24;27.30
36284;BME280;56085;48.910;9.478;2023-07-31T11:18:06;97898.16;;;31.07;27.65
36284;BME280;56085;48.910;9.478;2023-07-31T11:20:34;97854.59;;;31.18;27.61
36284;BME280;56085;48.910;9.478;2023-07-31T11:23:03;97918.59;;;31.48;27.16
36284;BME280;56085;48.910;9.478;2023-07-31T11:25:32;97921.66;;;31.45;27.13
36284;BME280;56085;48.910;9.478;2023-07-31T11:28:05;97918.19;;;31.84;27.23
36284;BME280;56085;48.910;9.478;2023-07-31T11:30:32;97885.13;;;31.72;27.53
36284;BME280;56085;48.910;9.478;2023-07-31T11:32:57;97823.63;;;32.27;27.54
36284;BME280;56085;48.910;9.478;2023-07-31T11:35:22;97871.66;;;31.89;27.35
36284;BME280;56085;48.910;9.478;2023-07-31T11:37:48;97866.47;;;31.88;27.25
36284;BME280;56085;48.910;9.478;2023-07-31T11:40:14;97849.09;;;32.36;27.13
36284;BME280;56085;48.910;9.478;2023-07-31T11:42:40;97849.31;;;32.33;26.53
36284;BME280;56085;48.910;9.478;2023-07-31T11:45:09;97869.81;;;32.77;26.98
36284;BME280;56085;48.910;9.478;2023-07-31T11:47:37;97830.63;;;33.78;26.59
36284;BME280;56085;48.910;9.478;2023-07-31T11:50:04;97879.25;;;32.21;26.95
36284;BME280;56085;48.910;9.478;2023-07-31T11:52:33;97886.75;;;32.07;26.60
36284;BME280;56085;48.910;9.478;2023-07-31T11:54:59;97857.59;;;31.57;26.91
36284;BME280;56085;48.910;9.478;2023-07-31T11:57:25;97846.22;;;32.25;26.47
36284;BME280;56085;48.910;9.478;2023-07-31T11:59:51;97834.50;;;31.66;26.39
36284;BME280;56085;48.910;9.478;2023-07-31T12:02:17;97830.50;;;31.36;26.39
36284;BME280;56085;48.910;9.478;2023-07-31T12:04:43;97794.91;;;31.25;26.54
36284;BME280;56085;48.910;9.478;2023-07-31T12:07:09;97839.50;;;31.06;26.51
36284;BME280;56085;48.910;9.478;2023-07-31T12:09:34;97792.16;;;31.88;26.57
36284;BME280;56085;48.910;9.478;2023-07-31T12:11:59;97824.66;;;31.73;26.44
36284;BME280;56085;48.910;9.478;2023-07-31T12:14:26;97836.06;;;31.96;26.83
36284;BME280;56085;48.910;9.478;2023-07-31T12:17:00;97894.03;;;32.08;26.23
36284;BME280;56085;48.910;9.478;2023-07-31T12:19:26;97811.38;;;32.04;26.51
36284;BME280;56085;48.910;9.478;2023-07-31T12:21:55;97827.25;;;32.28;26.68
36284;BME280;56085;48.910;9.478;2023-07-31T12:24:21;97815.25;;;32.46;26.14
36284;BME280;56085;48.910;9.478;2023-07-31T12:26:46;97749.53;;;31.61;26.25
36284;BME280;56085;48.910;9.478;2023-07-31T12:29:12;97793.97;;;31.68;26.38
36284;BME280;56085;48.910;9.478;2023-07-31T12:31:41;97844.53;;;31.45;25.99
36284;BME280;56085;48.910;9.478;2023-07-31T12:34:15;97859.09;;;31.41;25.98
36284;BME280;56085;48.910;9.478;2023-07-31T12:36:42;97810.56;;;31.47;26.10
36284;BME280;56085;48.910;9.478;2023-07-31T12:39:07;97811.13;;;31.68;26.08
36284;BME280;56085;48.910;9.478;2023-07-31T12:41:33;97771.13;;;31.79;26.55
36284;BME280;56085;48.910;9.478;2023-07-31T12:43:58;97799.97;;;31.64;26.27
36284;BME280;56085;48.910;9.478;2023-07-31T12:46:23;97802.53;;;31.62;26.04
36284;BME280;56085;48.910;9.478;2023-07-31T12:48:49;97750.28;;;32.24;26.31
36284;BME280;56085;48.910;9.478;2023-07-31T12:51:14;97768.78;;;32.17;26.15
36284;BME280;56085;48.910;9.478;2023-07-31T12:53:39;97773.44;;;31.64;25.75
36284;BME280;56085;48.910;9.478;2023-07-31T12:56:04;97793.09;;;31.33;26.33
36284;BME280;56085;48.910;9.478;2023-07-31T12:58:30;97762.50;;;31.51;26.16
36284;BME280;56085;48.910;9.478;2023-07-31T13:00:55;97759.41;;;31.89;26.41
36284;BME280;56085;48.910;9.478;2023-07-31T13:03:21;97730.84;;;31.60;26.32